KOWP

William R Pogue Municipal Airport

Sand Springs, Oklahoma, USA
METAR KOWP 280055Z AUTO 12005KT 10SM CLR 31/18 A2985 RMK AO2 T03100183
Observed Flight Rules
May-28 @ 00:55 UTC (16 minutes ago) Visual Flight Rules
Wind Visibility Clouds
120° at 5 knots 10 miles
  • Clear skies
Temperatures Readings
Current 31°C / 88°F
Dewpoint 18°C / 64°F
Humidity 46%
Altimeter 29.85" Hg
Pressure 1011 hPa
Elevation 272
METAR KOWP 280055Z AUTO 12005KT 10SM CLR 31/18 A2985 RMK AO2 T03100183
Observed Flight Rules
May-28 @ 00:55 UTC
(16 minutes ago)
VFR
Wind Visibility
120° at 5 knots 10 miles
Clouds
  • Clear skies
Temperature Dewpoint
31°C / 88°F 18°C / 64°F
Humidity Altimeter Pressure
46% 29.85" Hg 1011 hPa